This is the latest recevied weather packets stored in our database for station/object lw9ero. If no packets are shown the sender has not sent any weather packets the latest 10 day(s).
| Time | Temp. | Humidity | Pressure | Rain* | Wind** | Luminosity | Snow |
|---|---|---|---|---|---|---|---|
| 1777639580 | 17.78° C | 78% | 1013.6 hPa | 0 mm | - | - | - |
| 1777638971 | 17.22° C | 79% | 1013.7 hPa | 0 mm | - | - | - |
| 1777638365 | 17.22° C | 79% | 1013.7 hPa | 0 mm | - | - | - |
| 1777637759 | 16.67° C | 80% | 1013.8 hPa | 0 mm | - | - | - |
| 1777637152 | 16.67° C | 80% | 1013.9 hPa | 0 mm | - | - | - |
| 1777636546 | 16.11° C | 83% | 1013.7 hPa | 0 mm | - | - | - |
| 1777635336 | 15.56° C | 87% | 1013.7 hPa | 0 mm | - | - | - |
| 1777634728 | 15° C | 89% | 1013.6 hPa | 0 mm | - | - | - |
| 1777634123 | 14.44° C | 90% | 1013.6 hPa | 0 mm | - | - | - |
| 1777633520 | 13.89° C | 90% | 1013.7 hPa | 0 mm | - | - | - |
| 1777632910 | 13.89° C | 90% | 1013.7 hPa | 0 mm | - | - | - |
| 1777632304 | 13.89° C | 90% | 1013.7 hPa | 0 mm | - | - | - |
| 1777631697 | 13.89° C | 91% | 1014 hPa | 0 mm | - | - | - |
| 1777631091 | 13.89° C | 91% | 1013.8 hPa | 0 mm | - | - | - |
| 1777630484 | 13.89° C | 91% | 1013.7 hPa | 0 mm | - | - | - |
| 1777629879 | 13.33° C | 91% | 1013.9 hPa | 0 mm | - | - | - |
| 1777629273 | 13.33° C | 91% | 1013.8 hPa | 0 mm | - | - | - |
| 1777628666 | 13.33° C | 90% | 1013.9 hPa | 0 mm | - | - | - |
| 1777628061 | 13.89° C | 90% | 1014.2 hPa | 0 mm | - | - | - |
| 1777627454 | 13.89° C | 90% | 1014 hPa | 0 mm | - | - | - |
| 1777626848 | 13.89° C | 90% | 1013.9 hPa | 0 mm | - | - | - |
| 1777626242 | 13.33° C | 91% | 1014 hPa | 0 mm | - | - | - |
| 1777625635 | 13.33° C | 91% | 1013.9 hPa | 0 mm | - | - | - |
| 1777625028 | 13.33° C | 90% | 1014 hPa | 0 mm | - | - | - |
| 1777624423 | 13.89° C | 89% | 1014 hPa | 0 mm | - | - | - |
* Rain latest hour (hover to see other rain measurements)
** Current wind speed in m/s (hover to see current wind gust speed)